Time;durP1;ratioP1;P1;durP2;ratioP2;P2;SDS_P1;SDS_P2;PMS_P1;PMS_P2;Temp;Humidity;BMP_temperature;BMP_pressure;BME280_temperature;BME280_humidity;BME280_pressure;Samples;Min_cycle;Max_cycle;Signal;HPM_P1;HPM_P2
2024/01/23 00:00:33;;;;;;;9.40;2.80;;;;;;;16.85;35.36;101734.31;16110665;19;131675;-64
2024/01/23 00:05:55;;;;;;;6.57;2.15;;;;;;;16.83;35.88;101738.34;16111064;19;129321;-63
2024/01/23 00:11:17;;;;;;;9.13;2.28;;;;;;;16.80;35.69;101771.97;16107877;19;130478;-63
2024/01/23 00:16:39;;;;;;;8.52;2.05;;;;;;;16.77;35.93;101792.56;16106530;19;129695;-63
2024/01/23 00:22:00;;;;;;;9.93;2.33;;;;;;;16.74;35.53;101784.69;16110326;19;129245;-63
2024/01/23 00:27:22;;;;;;;8.77;2.10;;;;;;;16.72;35.92;101789.59;16110426;19;129888;-65
2024/01/23 00:32:44;;;;;;;8.85;2.42;;;;;;;16.68;35.73;101805.72;16109981;19;131186;-63
2024/01/23 00:38:07;;;;;;;9.55;2.15;;;;;;;16.68;35.79;101840.81;16107611;19;131260;-63
2024/01/23 00:43:30;;;;;;;7.85;1.90;;;;;;;16.63;35.91;101831.19;16111277;19;131042;-63
2024/01/23 00:48:52;;;;;;;4.35;1.60;;;;;;;16.60;35.84;101845.44;16111384;19;129680;-63
2024/01/23 00:54:14;;;;;;;7.95;1.80;;;;;;;16.58;35.72;101853.09;16109172;19;129308;-63
2024/01/23 00:59:35;;;;;;;5.15;1.63;;;;;;;16.56;35.78;101857.09;16108770;19;129409;-62
2024/01/23 01:04:57;;;;;;;5.07;1.52;;;;;;;16.53;36.01;101860.31;16110058;19;130175;-62
2024/01/23 01:10:19;;;;;;;6.30;1.40;;;;;;;16.52;36.31;101889.00;16105147;19;130715;-62
2024/01/23 01:15:41;;;;;;;5.93;1.60;;;;;;;16.49;36.13;101876.47;16109395;19;131515;-65
2024/01/23 01:33:50;;;;;;;3.08;1.20;;;;;;;16.40;36.30;101932.91;16096677;19;130072;-63
2024/01/23 01:39:14;;;;;;;6.13;1.55;;;;;;;16.38;36.04;101940.56;16105081;19;131891;-63
2024/01/23 01:44:36;;;;;;;4.72;1.38;;;;;;;16.37;36.03;101945.25;16105542;19;129512;-62
2024/01/23 01:49:58;;;;;;;4.70;1.52;;;;;;;16.36;36.11;101965.63;16122773;19;129513;-62
2024/01/23 01:55:21;;;;;;;3.33;1.20;;;;;;;16.34;36.25;101975.19;16119913;19;131578;-62
2024/01/23 02:00:44;;;;;;;6.65;1.90;;;;;;;16.32;36.01;101976.22;16123444;19;129739;-62
2024/01/23 02:06:06;;;;;;;5.75;1.13;;;;;;;16.31;35.93;101980.06;16119029;19;130867;-62
2024/01/23 02:11:29;;;;;;;2.85;0.98;;;;;;;16.31;36.18;101982.81;16119798;19;131027;-63
2024/01/23 02:16:51;;;;;;;1.40;0.77;;;;;;;16.31;36.36;102001.28;16118636;19;131568;-63
2024/01/23 02:22:12;;;;;;;3.13;0.80;;;;;;;16.29;35.94;102023.59;16120396;19;129713;-63
2024/01/23 02:27:34;;;;;;;2.83;0.60;;;;;;;16.29;36.36;102020.81;16118913;19;129846;-63
2024/01/23 02:32:56;;;;;;;2.50;0.70;;;;;;;16.29;36.24;102017.22;16117596;19;130435;-63
2024/01/23 02:38:18;;;;;;;2.33;0.43;;;;;;;16.27;36.18;102036.72;16118060;19;129673;-63
2024/01/23 02:43:40;;;;;;;1.25;0.50;;;;;;;16.26;36.17;102043.31;16116539;19;131120;-63
2024/01/23 02:49:02;;;;;;;2.88;0.43;;;;;;;16.26;36.24;102050.75;16114259;19;129722;-63
2024/01/23 02:54:25;;;;;;;3.42;0.50;;;;;;;16.25;36.04;102047.13;16116373;19;130055;-63
2024/01/23 02:59:46;;;;;;;1.60;0.50;;;;;;;16.24;36.00;102062.00;16114458;19;129580;-63
2024/01/23 03:05:08;;;;;;;1.15;0.40;;;;;;;16.22;36.02;102050.31;16116607;19;130269;-63
2024/01/23 03:10:30;;;;;;;1.63;0.40;;;;;;;16.19;36.06;102072.78;16115985;19;129588;-63
2024/01/23 03:15:53;;;;;;;0.80;0.50;;;;;;;16.18;36.44;102084.91;16118983;19;129161;-63
2024/01/23 03:21:15;;;;;;;1.60;0.60;;;;;;;16.16;36.56;102095.28;16113396;19;134293;-63
2024/01/23 03:26:37;;;;;;;1.95;0.60;;;;;;;16.14;36.32;102089.09;16119405;19;131944;-63
2024/01/23 03:31:59;;;;;;;2.75;0.75;;;;;;;16.13;36.29;102095.69;16114626;19;130099;-62
2024/01/23 03:37:21;;;;;;;3.17;0.90;;;;;;;16.10;36.16;102121.78;16109086;19;131490;-63
2024/01/23 03:42:43;;;;;;;3.67;0.85;;;;;;;16.08;36.28;102140.44;16109545;19;131518;-63
2024/01/23 03:48:06;;;;;;;4.03;1.10;;;;;;;16.07;36.50;102159.97;16111092;19;129628;-63
2024/01/23 03:53:28;;;;;;;4.40;0.80;;;;;;;16.06;36.57;102172.06;16110305;19;129932;-63
2024/01/23 03:58:50;;;;;;;3.05;0.73;;;;;;;16.04;36.27;102177.81;16113979;19;130618;-62
2024/01/23 04:04:12;;;;;;;3.53;1.00;;;;;;;16.03;36.14;102177.97;16109294;19;130126;-63
2024/01/23 04:09:34;;;;;;;2.75;0.80;;;;;;;16.01;36.37;102201.13;16109605;19;130840;-63
2024/01/23 04:14:58;;;;;;;2.58;0.60;;;;;;;16.00;36.61;102212.38;16107778;19;129750;-63
2024/01/23 04:20:20;;;;;;;4.10;0.88;;;;;;;15.99;36.15;102207.91;16104251;19;131207;-63
2024/01/23 04:25:42;;;;;;;5.28;1.05;;;;;;;15.97;36.16;102216.38;16105643;19;129633;-63
2024/01/23 04:31:04;;;;;;;3.85;0.70;;;;;;;15.95;36.31;102229.53;16111818;19;129879;-63
2024/01/23 04:36:26;;;;;;;1.88;0.75;;;;;;;15.94;36.63;102249.06;16108338;19;130864;-63
2024/01/23 04:41:48;;;;;;;3.88;1.00;;;;;;;15.91;36.58;102250.28;16110213;19;129956;-63
2024/01/23 04:47:10;;;;;;;2.90;1.00;;;;;;;15.89;36.62;102263.41;16109715;19;130133;-63
2024/01/23 04:52:32;;;;;;;3.97;1.02;;;;;;;15.89;36.33;102274.44;16110026;19;130491;-63
2024/01/23 04:57:53;;;;;;;2.95;0.90;;;;;;;15.87;36.41;102283.97;16109103;19;129828;-63
2024/01/23 05:03:15;;;;;;;3.63;1.00;;;;;;;15.85;36.30;102290.53;16108172;19;130091;-63
2024/01/23 05:08:38;;;;;;;3.53;1.30;;;;;;;15.85;36.31;102306.25;16106880;19;129662;-62
2024/01/23 05:14:01;;;;;;;5.72;1.40;;;;;;;15.83;36.30;102319.41;16107863;19;131466;-63
2024/01/23 05:19:23;;;;;;;2.85;0.95;;;;;;;15.81;36.45;102321.50;16112027;19;130867;-63
2024/01/23 05:24:45;;;;;;;2.75;0.90;;;;;;;15.80;36.42;102336.31;16125772;19;129851;-62
2024/01/23 05:30:07;;;;;;;4.25;1.15;;;;;;;15.79;36.41;102348.41;16118959;19;130356;-63
2024/01/23 05:35:29;;;;;;;3.05;1.10;;;;;;;15.77;36.19;102342.22;16112338;19;131023;-63
2024/01/23 05:40:51;;;;;;;3.25;1.15;;;;;;;15.75;36.05;102349.88;16111107;19;130114;-63
2024/01/23 05:46:13;;;;;;;2.95;1.00;;;;;;;15.73;36.27;102357.44;16114378;19;130998;-63
2024/01/23 05:51:35;;;;;;;3.63;1.25;;;;;;;15.70;36.25;102378.84;16114518;19;133860;-63
2024/01/23 05:56:57;;;;;;;3.20;1.00;;;;;;;15.69;36.09;102398.34;16119937;19;129741;-67
2024/01/23 06:02:19;;;;;;;3.10;0.85;;;;;;;15.68;36.57;102410.44;16120378;19;131334;-66
2024/01/23 06:07:43;;;;;;;5.97;1.40;;;;;;;15.70;36.42;102398.16;16115317;19;131635;-63
2024/01/23 06:13:05;;;;;;;4.97;1.00;;;;;;;15.82;36.11;102426.16;16120882;19;131247;-63
2024/01/23 06:18:27;;;;;;;3.15;0.85;;;;;;;15.95;36.25;102432.91;16121612;19;132239;-63
2024/01/23 06:23:50;;;;;;;5.22;1.33;;;;;;;16.10;36.08;102431.00;16116351;19;131314;-63
2024/01/23 06:29:12;;;;;;;4.22;1.30;;;;;;;16.25;36.19;102438.41;16114335;19;130594;-61
2024/01/23 06:34:33;;;;;;;3.67;1.35;;;;;;;16.40;36.62;102430.94;16120189;19;129643;-62
2024/01/23 06:39:56;;;;;;;8.13;1.52;;;;;;;16.57;36.50;102441.75;16118357;19;131312;-61
2024/01/23 06:45:18;;;;;;;10.43;1.33;;;;;;;16.75;36.70;102449.63;16114922;19;130121;-65
2024/01/23 06:50:40;;;;;;;8.45;1.38;;;;;;;16.90;36.43;102438.53;16114978;19;131553;-66
2024/01/23 06:56:02;;;;;;;3.70;1.13;;;;;;;17.04;36.30;102442.25;16113907;19;130837;-63
2024/01/23 07:01:24;;;;;;;5.43;1.10;;;;;;;17.15;36.36;102460.25;16109728;19;129871;-63
2024/01/23 07:06:46;;;;;;;4.82;1.30;;;;;;;17.21;36.12;102467.72;16113920;19;130527;-63
2024/01/23 07:12:08;;;;;;;7.25;1.20;;;;;;;17.22;35.71;102459.25;16112235;19;129768;-64
2024/01/23 07:17:30;;;;;;;5.22;1.20;;;;;;;17.23;35.65;102457.31;16115109;19;130364;-63
2024/01/23 07:22:52;;;;;;;3.28;0.93;;;;;;;17.22;35.93;102462.00;16114837;19;130607;-64
2024/01/23 07:28:14;;;;;;;4.60;1.42;;;;;;;17.17;35.62;102474.72;16112369;19;129841;-66
2024/01/23 07:33:56;;;;;;;5.10;1.30;;;;;;;17.10;35.44;102480.19;16113814;19;131230;-66
2024/01/23 07:39:18;;;;;;;7.28;1.70;;;;;;;17.02;35.48;102483.06;16113930;19;130184;-66
2024/01/23 07:44:42;;;;;;;4.15;1.60;;;;;;;16.97;35.34;102491.13;16108848;19;133955;-65
2024/01/23 07:50:07;;;;;;;8.07;1.73;;;;;;;16.97;35.12;102508.53;16106722;19;131807;-64
2024/01/23 07:55:30;;;;;;;;;;;;;;;17.06;34.97;102517.56;16106550;19;129701;-64
2024/01/23 08:00:51;;;;;;;10.43;2.67;;;;;;;17.23;34.00;102524.53;16105397;19;130467;-66
2024/01/23 08:06:13;;;;;;;11.13;2.90;;;;;;;17.31;33.67;102522.72;16106588;19;130391;-66
2024/01/23 08:11:35;;;;;;;12.82;3.28;;;;;;;17.45;32.65;102526.44;16107884;19;130967;-66
2024/01/23 08:16:58;;;;;;;9.77;2.90;;;;;;;17.68;32.11;102540.09;16108751;19;129515;-66
2024/01/23 08:22:22;;;;;;;13.40;3.40;;;;;;;17.95;31.81;102549.44;16108234;19;132048;-66
2024/01/23 08:27:48;;;;;;;15.05;3.47;;;;;;;18.25;31.35;102545.59;16108882;19;129784;-66
2024/01/23 08:33:14;;;;;;;10.63;3.28;;;;;;;18.44;30.71;102558.75;16105269;19;129549;-65
2024/01/23 08:38:39;;;;;;;14.45;3.30;;;;;;;18.34;30.57;102554.59;16108237;19;131415;-66
2024/01/23 08:44:04;;;;;;;16.98;3.60;;;;;;;18.13;30.58;102567.47;16107341;19;130634;-66
2024/01/23 08:49:27;;;;;;;13.93;3.35;;;;;;;17.92;30.82;102587.78;16104398;19;129626;-66
2024/01/23 08:54:49;;;;;;;20.83;4.50;;;;;;;17.61;30.75;102583.44;16108960;19;129981;-66
2024/01/23 09:00:12;;;;;;;14.38;4.05;;;;;;;17.74;30.95;102586.34;16122790;19;130396;-65
2024/01/23 09:05:34;;;;;;;15.65;3.90;;;;;;;17.69;30.66;102573.09;16122210;19;130606;-64
2024/01/23 09:11:04;;;;;;;13.13;3.65;;;;;;;18.23;30.96;102578.19;16125205;19;131055;-64
2024/01/23 09:16:26;;;;;;;13.23;3.20;;;;;;;18.82;31.01;102574.03;16117459;19;130178;-65
2024/01/23 09:21:48;;;;;;;17.50;3.00;;;;;;;19.45;30.04;102580.41;16128747;19;130919;-63
2024/01/23 09:27:11;;;;;;;13.50;3.00;;;;;;;20.07;29.20;102577.44;16122987;19;129818;-62
2024/01/23 09:32:33;;;;;;;10.70;3.55;;;;;;;20.68;29.01;102567.00;16124601;19;131708;-63
2024/01/23 09:37:56;;;;;;;9.07;2.97;;;;;;;21.28;28.41;102568.66;16124583;19;129668;-61
2024/01/23 09:43:21;;;;;;;13.18;3.60;;;;;;;21.88;27.38;102561.78;16121012;19;129830;-62
2024/01/23 09:48:43;;;;;;;9.60;2.97;;;;;;;22.44;27.13;102560.75;16118636;19;129387;-62
2024/01/23 09:54:05;;;;;;;10.57;2.85;;;;;;;22.95;26.43;102552.19;16122457;19;131510;-62
2024/01/23 09:59:27;;;;;;;7.47;2.70;;;;;;;23.32;26.15;102543.69;16113532;19;129222;-63
2024/01/23 10:04:52;;;;;;;10.05;2.42;;;;;;;23.48;25.77;102549.69;16111982;19;130071;-63
2024/01/23 10:10:17;;;;;;;6.38;2.40;;;;;;;23.34;25.84;102547.09;16115268;19;131312;-63
2024/01/23 10:15:40;;;;;;;8.73;2.88;;;;;;;23.04;25.87;102567.53;16137847;19;129730;-63
2024/01/23 10:21:02;;;;;;;9.05;3.05;;;;;;;22.64;25.79;102562.47;16144858;19;129314;-63
2024/01/23 10:26:24;;;;;;;7.30;2.40;;;;;;;22.23;26.53;102564.03;16140468;19;130734;-63
2024/01/23 10:31:46;;;;;;;7.18;2.30;;;;;;;21.81;27.05;102565.47;16138851;19;129658;-63
2024/01/23 10:37:09;;;;;;;9.48;2.65;;;;;;;21.40;27.50;102543.72;16125625;19;130011;-65
2024/01/23 10:42:32;;;;;;;7.80;2.90;;;;;;;21.04;27.74;102560.03;16124419;19;130388;-66
2024/01/23 10:47:57;;;;;;;8.90;2.42;;;;;;;20.68;28.24;102562.31;16129227;19;129386;-62
2024/01/23 10:53:22;;;;;;;10.82;2.58;;;;;;;20.34;28.69;102583.81;16133358;19;129606;-62
2024/01/23 10:58:51;;;;;;;8.80;2.47;;;;;;;19.96;29.03;102579.78;16135304;19;131372;-63
2024/01/23 11:04:15;;;;;;;15.57;3.17;;;;;;;19.78;28.77;102560.16;16131591;19;131073;-63
2024/01/23 11:09:44;;;;;;;11.30;3.95;;;;;;;19.56;29.25;102532.59;16133857;19;129549;-63
2024/01/23 11:15:13;;;;;;;12.70;4.10;;;;;;;19.51;29.60;102527.66;16132337;19;129910;-63
2024/01/23 11:20:35;;;;;;;13.13;3.35;;;;;;;19.55;29.93;102521.69;16127681;19;130791;-63
2024/01/23 11:25:58;;;;;;;12.60;3.10;;;;;;;19.63;29.80;102510.41;16135366;19;129855;-63
2024/01/23 11:31:22;;;;;;;12.60;2.83;;;;;;;19.82;29.95;102508.63;16131638;19;129471;-62
2024/01/23 11:36:45;;;;;;;11.02;3.13;;;;;;;19.96;30.02;102485.31;16131198;19;129980;-62
2024/01/23 11:42:11;;;;;;;8.75;2.75;;;;;;;20.13;29.77;102465.44;16130221;19;129908;-63
2024/01/23 11:47:33;;;;;;;11.93;2.93;;;;;;;20.23;30.04;102457.50;16129661;19;129318;-62
2024/01/23 11:52:57;;;;;;;12.57;3.22;;;;;;;20.21;29.79;102437.41;16131012;19;129088;-62
2024/01/23 11:58:19;;;;;;;8.88;2.90;;;;;;;20.10;29.77;102435.31;16119793;19;130445;-63
2024/01/23 12:03:48;;;;;;;12.80;3.28;;;;;;;19.98;30.38;102430.41;16110923;19;130212;-63
2024/01/23 12:09:10;;;;;;;12.30;3.35;;;;;;;19.77;30.08;102416.81;16108292;19;131127;-63
2024/01/23 12:14:32;;;;;;;10.05;3.38;;;;;;;19.53;30.35;102405.34;16110065;19;129612;-63
2024/01/23 12:19:57;;;;;;;12.43;3.57;;;;;;;19.34;30.88;102409.84;16112375;19;131009;-63
2024/01/23 12:25:19;;;;;;;12.77;3.05;;;;;;;19.14;30.90;102377.38;16106759;19;129572;-63
2024/01/23 12:30:44;;;;;;;13.00;3.13;;;;;;;18.99;31.19;102377.59;16103479;19;131003;-63
2024/01/23 12:36:07;;;;;;;10.93;3.50;;;;;;;18.85;31.65;102381.44;16108461;19;129942;-64
2024/01/23 12:41:29;;;;;;;11.52;3.50;;;;;;;18.74;31.46;102385.72;16108345;19;130667;-64
2024/01/23 12:46:51;;;;;;;7.93;2.53;;;;;;;18.60;31.52;102371.81;16110757;19;129243;-64
2024/01/23 12:52:15;;;;;;;12.18;3.25;;;;;;;18.48;32.13;102367.09;16106135;19;130911;-64
2024/01/23 12:57:37;;;;;;;12.23;2.88;;;;;;;18.35;32.20;102365.97;16109395;19;131175;-64
2024/01/23 13:02:59;;;;;;;11.63;2.75;;;;;;;18.22;32.55;102349.31;16111683;19;130740;-64
2024/01/23 13:08:21;;;;;;;11.95;2.97;;;;;;;18.10;32.22;102341.59;16110130;19;131478;-64
2024/01/23 13:13:43;;;;;;;11.68;3.33;;;;;;;18.02;32.55;102343.75;16108985;19;131369;-64
2024/01/23 13:19:05;;;;;;;10.90;3.10;;;;;;;17.92;32.63;102338.56;16105166;19;129795;-64
2024/01/23 13:24:27;;;;;;;8.30;2.58;;;;;;;17.85;32.85;102344.94;16107389;19;129549;-64
2024/01/23 13:29:50;;;;;;;8.32;2.85;;;;;;;17.77;32.85;102327.66;16106423;19;130187;-63
2024/01/23 13:35:12;;;;;;;11.77;2.90;;;;;;;17.70;32.95;102330.41;16105619;19;129708;-64
2024/01/23 13:40:34;;;;;;;11.77;2.88;;;;;;;17.64;33.15;102315.47;16108762;19;129747;-64
2024/01/23 13:45:59;;;;;;;9.30;2.63;;;;;;;17.58;33.36;102304.38;16120797;19;130657;-63
2024/01/23 13:51:21;;;;;;;9.37;3.30;;;;;;;17.51;33.56;102298.78;16118652;19;129837;-64
2024/01/23 13:56:43;;;;;;;15.07;3.67;;;;;;;17.46;33.61;102296.63;16119991;19;129243;-64
2024/01/23 14:02:05;;;;;;;11.85;2.78;;;;;;;17.39;34.11;102290.19;16119983;19;130156;-64
2024/01/23 14:07:27;;;;;;;12.90;2.42;;;;;;;17.37;34.16;102295.06;16118805;19;129752;-64
2024/01/23 14:12:49;;;;;;;12.23;2.50;;;;;;;17.31;34.37;102288.44;16119972;19;130756;-64
2024/01/23 14:18:13;;;;;;;9.18;2.60;;;;;;;17.26;34.05;102262.44;16116640;19;130281;-64
2024/01/23 14:23:36;;;;;;;16.05;3.53;;;;;;;17.18;34.66;102272.63;16114259;19;129615;-64
2024/01/23 14:28:58;;;;;;;18.63;4.00;;;;;;;17.03;35.18;102235.94;16114626;19;129743;-65
2024/01/23 14:34:22;;;;;;;13.05;3.30;;;;;;;17.02;35.40;102234.25;16107137;19;132884;-65
2024/01/23 14:39:44;;;;;;;26.95;4.32;;;;;;;17.02;35.28;102239.75;16108324;19;130284;-64
2024/01/23 14:45:08;;;;;;;17.33;3.35;;;;;;;17.02;35.62;102225.94;16110729;19;129542;-66
2024/01/23 14:50:34;;;;;;;16.25;3.65;;;;;;;17.04;36.99;102204.47;16112735;19;130657;-65
2024/01/23 14:55:56;;;;;;;15.00;3.60;;;;;;;17.03;36.65;102172.34;16117061;19;129900;-65
2024/01/23 15:01:18;;;;;;;13.43;3.17;;;;;;;17.04;36.84;102132.59;16115063;19;129403;-66
2024/01/23 15:06:41;;;;;;;11.13;2.58;;;;;;;17.13;36.75;102130.50;16116789;19;134606;-65
2024/01/23 15:12:03;;;;;;;20.80;3.35;;;;;;;17.26;36.46;102118.63;16112682;19;129453;-65
2024/01/23 15:17:25;;;;;;;18.95;3.35;;;;;;;17.41;36.46;102105.50;16115960;19;129593;-65
2024/01/23 15:22:48;;;;;;;22.88;3.50;;;;;;;17.58;36.46;102125.34;16112040;19;129601;-67
2024/01/23 15:28:10;;;;;;;15.95;2.40;;;;;;;17.70;36.35;102103.44;16116518;19;130447;-68
2024/01/23 15:33:32;;;;;;;14.18;2.42;;;;;;;17.82;36.23;102090.69;16114111;19;129805;-68
2024/01/23 15:38:55;;;;;;;17.30;2.60;;;;;;;17.92;35.80;102072.78;16115863;19;130243;-65
2024/01/23 15:44:18;;;;;;;15.80;2.75;;;;;;;18.01;35.90;102043.81;16118407;19;129791;-65
2024/01/23 15:49:40;;;;;;;13.43;2.30;;;;;;;18.07;36.02;102031.88;16120104;19;129578;-65
2024/01/23 15:55:04;;;;;;;8.90;2.30;;;;;;;18.14;35.96;102018.03;16118543;19;131034;-66
2024/01/23 16:00:27;;;;;;;6.93;1.92;;;;;;;18.20;36.20;102014.38;16114372;19;131511;-65
2024/01/23 16:05:49;;;;;;;8.40;1.80;;;;;;;18.21;36.20;101985.63;16110262;19;129705;-65
2024/01/23 16:11:11;;;;;;;8.93;2.15;;;;;;;18.22;35.91;101981.78;16117837;19;130001;-65
2024/01/23 16:16:36;;;;;;;12.03;2.13;;;;;;;18.19;36.17;101968.34;16114055;19;129331;-63
2024/01/23 16:21:58;;;;;;;6.35;1.88;;;;;;;18.16;35.92;101971.56;16110110;19;129630;-64
2024/01/23 16:27:23;;;;;;;12.48;2.38;;;;;;;18.11;36.07;101988.00;16109708;19;129599;-64
2024/01/23 16:32:45;;;;;;;9.52;2.42;;;;;;;18.06;36.26;101990.53;16104397;19;130828;-65
2024/01/23 16:38:08;;;;;;;9.55;2.00;;;;;;;18.04;36.10;101976.94;16107072;19;130934;-64
2024/01/23 16:43:30;;;;;;;25.77;5.40;;;;;;;18.11;38.26;101976.91;16107670;19;131049;-65
2024/01/23 16:48:52;;;;;;;17.52;5.45;;;;;;;18.15;38.46;101954.09;16105921;19;130874;-67
2024/01/23 16:54:14;;;;;;;22.35;5.22;;;;;;;18.20;38.21;101939.59;16103002;19;131278;-66
2024/01/23 16:59:36;;;;;;;15.68;4.18;;;;;;;18.25;38.89;101938.94;16108167;19;129378;-66
2024/01/23 17:04:58;;;;;;;12.98;3.28;;;;;;;18.30;38.80;101953.00;16103674;19;130370;-65
2024/01/23 17:10:20;;;;;;;10.10;2.97;;;;;;;18.37;38.61;101937.19;16105559;19;132905;-65
2024/01/23 17:15:42;;;;;;;14.73;2.70;;;;;;;18.50;38.76;101910.50;16159180;19;130649;-65
2024/01/23 17:21:04;;;;;;;9.77;2.60;;;;;;;18.65;38.76;101912.97;16185600;19;129666;-67
2024/01/23 17:26:27;;;;;;;12.23;2.40;;;;;;;18.76;37.97;101913.13;16177241;19;129464;-63
2024/01/23 17:31:49;;;;;;;6.63;1.95;;;;;;;18.86;37.46;101878.50;16141846;19;129633;-64
2024/01/23 17:37:12;;;;;;;7.45;2.03;;;;;;;18.89;37.34;101883.63;16143126;19;130871;-66
2024/01/23 17:42:34;;;;;;;4.45;1.60;;;;;;;18.93;36.90;101862.69;16162086;19;129464;-67
2024/01/23 17:47:56;;;;;;;8.02;2.33;;;;;;;18.95;36.79;101846.69;16168260;19;131488;-67
2024/01/23 17:53:18;;;;;;;8.63;2.00;;;;;;;18.99;37.01;101838.75;16178069;19;129286;-65
2024/01/23 17:58:40;;;;;;;5.78;1.75;;;;;;;18.98;36.71;101821.25;16169505;19;129285;-65
2024/01/23 18:04:02;;;;;;;18.75;1.98;;;;;;;18.96;36.75;101822.56;16130408;19;130387;-69
2024/01/23 18:09:25;;;;;;;7.78;1.98;;;;;;;18.95;36.97;101827.28;16125029;19;129297;-64
2024/01/23 18:14:47;;;;;;;13.45;2.30;;;;;;;18.90;36.67;101802.13;16122353;19;129623;-65
2024/01/23 18:20:10;;;;;;;11.43;2.10;;;;;;;18.88;36.64;101821.78;16126563;19;131507;-63
2024/01/23 18:25:33;;;;;;;7.00;1.83;;;;;;;18.94;36.25;101831.13;16127133;19;129387;-66
2024/01/23 18:30:55;;;;;;;9.20;2.20;;;;;;;19.05;36.62;101822.06;16118888;19;131847;-65
2024/01/23 18:36:19;;;;;;;7.63;1.90;;;;;;;19.17;36.28;101822.13;16124910;19;129749;-65
2024/01/23 18:41:41;;;;;;;9.93;2.20;;;;;;;19.30;36.26;101800.91;16125034;19;129464;-66
2024/01/23 18:47:03;;;;;;;10.02;2.22;;;;;;;19.38;35.89;101795.09;16123805;19;131460;-65
2024/01/23 18:52:25;;;;;;;11.95;2.50;;;;;;;19.47;36.05;101806.72;16120632;19;131282;-65
2024/01/23 18:57:48;;;;;;;7.72;2.38;;;;;;;19.54;36.24;101790.84;16117830;19;130175;-66
2024/01/23 19:03:11;;;;;;;8.88;2.33;;;;;;;19.65;35.74;101805.88;16118500;19;132026;-67
2024/01/23 19:08:33;;;;;;;7.80;2.30;;;;;;;19.74;35.70;101781.41;16122909;19;129400;-66
2024/01/23 19:13:56;;;;;;;8.30;2.25;;;;;;;19.81;36.04;101787.75;16119590;19;130494;-67
2024/01/23 19:19:18;;;;;;;7.03;2.03;;;;;;;19.90;35.99;101766.03;16122477;19;130114;-67
2024/01/23 19:24:40;;;;;;;6.18;2.20;;;;;;;19.96;35.76;101756.78;16122201;19;131071;-67
2024/01/23 19:30:02;;;;;;;5.85;1.85;;;;;;;20.01;35.74;101750.56;16117117;19;130898;-65
2024/01/23 19:35:24;;;;;;;5.80;1.85;;;;;;;20.07;35.99;101746.81;16117131;19;130007;-66
2024/01/23 19:40:46;;;;;;;7.25;2.00;;;;;;;20.09;35.43;101764.09;16112046;19;129417;-65
2024/01/23 19:46:09;;;;;;;6.03;2.15;;;;;;;20.08;35.49;101754.06;16117544;19;129858;-66
2024/01/23 19:51:31;;;;;;;5.90;1.80;;;;;;;20.04;35.27;101734.25;16118352;19;129512;-66
2024/01/23 19:56:53;;;;;;;7.85;1.90;;;;;;;20.02;35.46;101721.69;16114611;19;130746;-66
2024/01/23 20:02:14;;;;;;;5.15;1.73;;;;;;;19.94;35.47;101704.22;16118609;19;130801;-65
2024/01/23 20:07:37;;;;;;;5.82;1.90;;;;;;;19.88;35.71;101696.03;16115411;19;130573;-65
2024/01/23 20:12:59;;;;;;;7.22;2.03;;;;;;;19.80;35.38;101694.44;16115452;19;129454;-66
2024/01/23 20:18:21;;;;;;;5.38;2.05;;;;;;;19.69;35.48;101683.00;16110094;19;130822;-65
2024/01/23 20:23:44;;;;;;;5.30;1.67;;;;;;;19.55;35.88;101667.66;16123579;19;129874;-65
2024/01/23 20:29:06;;;;;;;8.77;1.80;;;;;;;19.46;36.05;101657.94;16106146;19;130353;-65
2024/01/23 20:34:28;;;;;;;6.85;2.40;;;;;;;19.36;36.76;101684.31;16114611;19;129989;-64
2024/01/23 20:39:53;;;;;;;6.20;1.98;;;;;;;19.26;36.89;101672.94;16106486;19;130062;-65
2024/01/23 20:45:15;;;;;;;11.03;2.17;;;;;;;19.15;37.08;101662.59;16108617;19;132818;-65
2024/01/23 20:50:38;;;;;;;8.13;2.00;;;;;;;19.05;37.18;101663.97;16125151;19;130392;-65
2024/01/23 20:56:00;;;;;;;10.30;2.20;;;;;;;18.96;37.57;101657.03;16142399;19;130314;-65
2024/01/23 21:01:28;;;;;;;6.63;2.13;;;;;;;18.88;37.64;101632.38;16139770;19;130320;-65
2024/01/23 21:06:50;;;;;;;5.18;1.63;;;;;;;18.79;37.38;101628.22;16141789;19;130128;-65
2024/01/23 21:12:14;;;;;;;10.77;2.13;;;;;;;18.70;37.99;101622.13;16141089;19;131287;-66
2024/01/23 21:17:36;;;;;;;6.60;1.98;;;;;;;18.62;37.88;101609.44;16141862;19;130065;-65
2024/01/23 21:23:00;;;;;;;8.63;2.28;;;;;;;18.54;38.13;101626.38;16142126;19;130579;-65
2024/01/23 21:28:22;;;;;;;7.50;2.25;;;;;;;18.49;38.35;101628.94;16142641;19;129925;-67
2024/01/23 21:33:44;;;;;;;7.05;1.90;;;;;;;18.41;38.24;101628.19;16144144;19;129492;-66
2024/01/23 21:39:08;;;;;;;8.02;2.15;;;;;;;18.35;38.47;101626.28;16138189;19;129799;-67
2024/01/23 21:44:29;;;;;;;6.05;1.70;;;;;;;18.29;38.67;101624.44;16139245;19;130081;-66
2024/01/23 21:49:51;;;;;;;7.20;1.73;;;;;;;18.22;38.76;101618.09;16139285;19;131813;-66
2024/01/23 21:55:13;;;;;;;9.35;1.65;;;;;;;18.17;38.71;101626.25;16137121;19;131043;-67
2024/01/23 22:00:35;;;;;;;5.57;1.67;;;;;;;18.12;38.66;101597.28;16128432;19;130144;-66
2024/01/23 22:05:57;;;;;;;9.43;2.10;;;;;;;18.07;38.78;101582.44;16117954;19;130441;-66
2024/01/23 22:11:19;;;;;;;8.18;1.95;;;;;;;18.02;38.81;101576.75;16126148;19;129657;-64
2024/01/23 22:16:41;;;;;;;5.65;1.60;;;;;;;17.96;38.94;101573.81;16118123;19;130511;-64
2024/01/23 22:22:03;;;;;;;6.05;2.00;;;;;;;17.91;39.39;101561.72;16119911;19;130771;-64
2024/01/23 22:27:25;;;;;;;5.55;1.63;;;;;;;17.85;39.56;101552.38;16114195;19;130941;-64
2024/01/23 22:32:47;;;;;;;7.25;1.52;;;;;;;17.80;39.36;101566.03;16117387;19;131837;-64
2024/01/23 22:38:09;;;;;;;6.72;1.75;;;;;;;17.77;39.87;101549.91;16113527;19;129940;-65
2024/01/23 22:43:31;;;;;;;7.47;1.50;;;;;;;17.73;39.87;101538.41;16118558;19;131490;-66
2024/01/23 22:48:53;;;;;;;5.78;1.63;;;;;;;17.70;39.93;101527.81;16117509;19;129704;-66
2024/01/23 22:54:16;;;;;;;5.28;1.50;;;;;;;17.66;40.09;101543.19;16111816;19;131968;-65
2024/01/23 22:59:39;;;;;;;5.47;1.48;;;;;;;17.63;40.02;101521.47;16121916;19;129988;-66
2024/01/23 23:05:01;;;;;;;3.97;1.17;;;;;;;17.60;39.94;101533.84;16117686;19;130901;-66
2024/01/23 23:10:23;;;;;;;5.47;1.33;;;;;;;17.57;40.32;101522.41;16114620;19;130762;-66
2024/01/23 23:15:45;;;;;;;4.50;1.33;;;;;;;17.53;40.24;101544.94;16110754;19;130178;-66
2024/01/23 23:21:08;;;;;;;3.92;1.33;;;;;;;17.51;40.79;101530.47;16116947;19;129818;-67
2024/01/23 23:26:30;;;;;;;5.25;1.50;;;;;;;17.49;41.00;101527.09;16115594;19;131056;-65
2024/01/23 23:31:52;;;;;;;4.75;1.30;;;;;;;17.48;40.77;101538.38;16111955;19;129547;-66
2024/01/23 23:37:14;;;;;;;4.18;1.00;;;;;;;17.46;41.11;101502.66;16112831;19;131019;-65
2024/01/23 23:42:36;;;;;;;3.70;0.80;;;;;;;17.43;41.20;101508.63;16112841;19;130046;-66
2024/01/23 23:47:58;;;;;;;3.47;0.90;;;;;;;17.41;41.20;101508.00;16115229;19;129660;-65
2024/01/23 23:53:20;;;;;;;4.88;1.02;;;;;;;17.38;41.14;101502.91;16113965;19;133967;-66
2024/01/23 23:58:42;;;;;;;3.53;1.00;;;;;;;17.35;41.18;101504.22;16113909;19;131177;-65
